Airport ICAO


13:30 UTC

10°C

Overcast


An affordable passengers' Moving Map for your aircraft. Made for the iPad and the iPhone
More information here

LFPM Villaroche


Melun FRANCE   VFR


METAR LFPM 101300Z AUTO 28010KT 9999 SCT027 OVC049 10/06 Q1027 0h30min





NOTAMS

OPEN